FCN587 MSLP-TNCC
Flight info
| Callsign | FCN587 |
|---|---|
| Flight time | 2h 39m |
| Altitude | 35000 |
| Route | UMIPI1G UMIPI DCT KOPAL DCT RAKEL DCT UBSUX DCT ALGUK DCT ESIPO DCT DATOR DATOR1B |
| Aircraft | A321/M-SDE3FGHIRWY/LB1 |
Departure
| Time | 2026-04-15 22:07 |
|---|---|
| Airport | El Salvador International Airport Saint Óscar Arnulfo Romero y Galdámez (MSLP) |
Arrival
| Time | 2026-04-16 00:46 |
|---|---|
| Airport | Hato International Airport (TNCC) |
| Time | Latitude | Longitude | Altitude | Speed | Heading |
|---|---|---|---|---|---|
| 2026-04-15 21:41 | 13.44396 | -89.05754 | 91 ft | 0 kts | 340° |
| 2026-04-15 21:54 | 13.44394 | -89.05753 | 91 ft | 1 kts | 340° |
| 2026-04-15 21:54 | 13.44378 | -89.05748 | 93 ft | 3 kts | 348° |
| 2026-04-15 21:55 | 13.44358 | -89.05744 | 91 ft | 3 kts | 358° |
| 2026-04-15 21:55 | 13.44338 | -89.05745 | 91 ft | 3 kts | 10° |
| 2026-04-15 21:55 | 13.44319 | -89.05750 | 90 ft | 3 kts | 28° |
| 2026-04-15 21:55 | 13.44304 | -89.05762 | 90 ft | 3 kts | 60° |
| 2026-04-15 21:56 | 13.44297 | -89.05777 | 91 ft | 3 kts | 75° |
| 2026-04-15 21:56 | 13.44293 | -89.05791 | 93 ft | 1 kts | 70° |
| 2026-04-15 21:56 | 13.44293 | -89.05792 | 93 ft | 2 kts | 70° |
| 2026-04-15 21:59 | 13.44301 | -89.05769 | 89 ft | 10 kts | 70° |
| 2026-04-15 21:59 | 13.44330 | -89.05689 | 93 ft | 12 kts | 70° |
| 2026-04-15 21:59 | 13.44356 | -89.05617 | 91 ft | 10 kts | 70° |
| 2026-04-15 21:59 | 13.44377 | -89.05557 | 93 ft | 8 kts | 70° |
| 2026-04-15 22:00 | 13.44394 | -89.05509 | 92 ft | 6 kts | 70° |
| 2026-04-15 22:00 | 13.44413 | -89.05456 | 94 ft | 8 kts | 70° |
| 2026-04-15 22:00 | 13.44409 | -89.05406 | 94 ft | 6 kts | 123° |
| 2026-04-15 22:00 | 13.44378 | -89.05384 | 92 ft | 5 kts | 146° |
| 2026-04-15 22:01 | 13.44372 | -89.05315 | 95 ft | 15 kts | 74° |
| 2026-04-15 22:01 | 13.44406 | -89.05218 | 95 ft | 14 kts | 70° |
| 2026-04-15 22:01 | 13.44436 | -89.05134 | 92 ft | 12 kts | 70° |
| 2026-04-15 22:01 | 13.44462 | -89.05062 | 95 ft | 10 kts | 70° |
| 2026-04-15 22:02 | 13.44484 | -89.05002 | 92 ft | 8 kts | 70° |
| 2026-04-15 22:02 | 13.44501 | -89.04954 | 94 ft | 6 kts | 70° |
| 2026-04-15 22:02 | 13.44519 | -89.04905 | 94 ft | 12 kts | 70° |
| 2026-04-15 22:02 | 13.44554 | -89.04808 | 92 ft | 14 kts | 69° |
| 2026-04-15 22:03 | 13.44588 | -89.04718 | 92 ft | 13 kts | 69° |
| 2026-04-15 22:03 | 13.44616 | -89.04641 | 92 ft | 10 kts | 70° |
| 2026-04-15 22:03 | 13.44637 | -89.04577 | 94 ft | 9 kts | 71° |
| 2026-04-15 22:03 | 13.44656 | -89.04522 | 94 ft | 10 kts | 70° |
| 2026-04-15 22:04 | 13.44685 | -89.04443 | 94 ft | 11 kts | 70° |
| 2026-04-15 22:04 | 13.44710 | -89.04373 | 93 ft | 9 kts | 69° |
| 2026-04-15 22:04 | 13.44729 | -89.04315 | 93 ft | 8 kts | 75° |
| 2026-04-15 22:04 | 13.44734 | -89.04269 | 96 ft | 5 kts | 99° |
| 2026-04-15 22:05 | 13.44715 | -89.04247 | 95 ft | 6 kts | 144° |
| 2026-04-15 22:05 | 13.44650 | -89.04217 | 99 ft | 10 kts | 160° |
| 2026-04-15 22:05 | 13.44603 | -89.04204 | 101 ft | 4 kts | 172° |
| 2026-04-15 22:05 | 13.44579 | -89.04217 | 100 ft | 7 kts | 225° |
| 2026-04-15 22:06 | 13.44564 | -89.04248 | 100 ft | 0 kts | 247° |
| 2026-04-15 22:06 | 13.44558 | -89.04264 | 99 ft | 15 kts | 250° |
| 2026-04-15 22:06 | 13.44439 | -89.04599 | 99 ft | 82 kts | 250° |
| 2026-04-15 22:06 | 13.44180 | -89.05327 | 94 ft | 133 kts | 250° |
| 2026-04-15 22:07 | 13.43816 | -89.06347 | 153 ft | 166 kts | 250° |
| 2026-04-15 22:07 | 13.43256 | -89.07337 | 735 ft | 162 kts | 219° |
| 2026-04-15 22:07 | 13.42175 | -89.07700 | 1149 ft | 172 kts | 183° |
| 2026-04-15 22:07 | 13.41047 | -89.07252 | 1616 ft | 182 kts | 142° |
| 2026-04-15 22:08 | 13.40427 | -89.06077 | 1780 ft | 205 kts | 101° |
| 2026-04-15 22:08 | 13.40603 | -89.04561 | 2051 ft | 220 kts | 87° |
| 2026-04-15 22:08 | 13.40420 | -89.02971 | 2174 ft | 236 kts | 111° |
| 2026-04-15 22:08 | 13.39740 | -89.01344 | 2336 ft | 259 kts | 120° |
| 2026-04-15 22:09 | 13.38895 | -88.99669 | 2766 ft | 267 kts | 120° |
| 2026-04-15 22:09 | 13.38038 | -88.97966 | 3378 ft | 270 kts | 116° |
| 2026-04-15 22:09 | 13.37222 | -88.96225 | 4005 ft | 272 kts | 112° |
| 2026-04-15 22:09 | 13.36437 | -88.94451 | 4648 ft | 274 kts | 112° |
| 2026-04-15 22:10 | 13.35670 | -88.92654 | 5187 ft | 277 kts | 111° |
| 2026-04-15 22:10 | 13.34902 | -88.90829 | 5782 ft | 280 kts | 110° |
| 2026-04-15 22:10 | 13.34130 | -88.88982 | 6341 ft | 283 kts | 110° |
| 2026-04-15 22:10 | 13.33361 | -88.87142 | 6879 ft | 286 kts | 110° |
| 2026-04-15 22:11 | 13.32574 | -88.85261 | 7446 ft | 288 kts | 109° |
| 2026-04-15 22:11 | 13.31777 | -88.83363 | 8036 ft | 290 kts | 109° |
| 2026-04-15 22:11 | 13.30976 | -88.81453 | 8624 ft | 293 kts | 110° |
| 2026-04-15 22:11 | 13.30169 | -88.79525 | 9186 ft | 295 kts | 110° |
| 2026-04-15 22:12 | 13.29353 | -88.77577 | 9735 ft | 298 kts | 110° |
| 2026-04-15 22:12 | 13.28526 | -88.75608 | 10144 ft | 306 kts | 111° |
| 2026-04-15 22:12 | 13.27657 | -88.73537 | 10262 ft | 324 kts | 112° |
| 2026-04-15 22:12 | 13.26743 | -88.71356 | 10382 ft | 342 kts | 110° |
| 2026-04-15 22:13 | 13.25785 | -88.69070 | 10642 ft | 352 kts | 110° |
| 2026-04-15 22:13 | 13.24808 | -88.66748 | 11116 ft | 355 kts | 111° |
| 2026-04-15 22:13 | 13.23823 | -88.64419 | 11632 ft | 357 kts | 112° |
| 2026-04-15 22:13 | 13.22832 | -88.62075 | 12154 ft | 358 kts | 111° |
| 2026-04-15 22:14 | 13.21845 | -88.59735 | 12716 ft | 358 kts | 111° |
| 2026-04-15 22:14 | 13.20855 | -88.57385 | 13272 ft | 359 kts | 112° |
| 2026-04-15 22:14 | 13.19862 | -88.55032 | 13790 ft | 361 kts | 112° |
| 2026-04-15 22:14 | 13.18864 | -88.52660 | 14216 ft | 363 kts | 112° |
| 2026-04-15 22:15 | 13.17860 | -88.50272 | 14606 ft | 367 kts | 112° |
| 2026-04-15 22:15 | 13.16863 | -88.47897 | 15037 ft | 368 kts | 111° |
| 2026-04-15 22:15 | 13.16118 | -88.45388 | 15417 ft | 370 kts | 100° |
| 2026-04-15 22:15 | 13.15871 | -88.42755 | 15793 ft | 372 kts | 90° |
| 2026-04-15 22:16 | 13.15867 | -88.40091 | 16174 ft | 375 kts | 90° |
| 2026-04-15 22:16 | 13.15860 | -88.37407 | 16565 ft | 377 kts | 90° |
| 2026-04-15 22:16 | 13.15848 | -88.34708 | 16950 ft | 379 kts | 90° |
| 2026-04-15 22:16 | 13.15831 | -88.31993 | 17309 ft | 382 kts | 90° |
| 2026-04-15 22:17 | 13.15811 | -88.29263 | 17693 ft | 384 kts | 90° |
| 2026-04-15 22:17 | 13.15791 | -88.26513 | 18051 ft | 387 kts | 90° |
| 2026-04-15 22:17 | 13.15773 | -88.23742 | 18347 ft | 389 kts | 90° |
| 2026-04-15 22:17 | 13.15756 | -88.20963 | 18672 ft | 390 kts | 90° |
| 2026-04-15 22:18 | 13.15739 | -88.18171 | 18958 ft | 393 kts | 90° |
| 2026-04-15 22:18 | 13.15720 | -88.15355 | 19244 ft | 395 kts | 90° |
| 2026-04-15 22:18 | 13.15701 | -88.12536 | 19559 ft | 396 kts | 90° |
| 2026-04-15 22:18 | 13.15683 | -88.09695 | 19805 ft | 400 kts | 90° |
| 2026-04-15 22:19 | 13.15664 | -88.06838 | 20089 ft | 401 kts | 90° |
| 2026-04-15 22:19 | 13.15647 | -88.03971 | 20386 ft | 403 kts | 89° |
| 2026-04-15 22:19 | 13.15627 | -88.01121 | 20634 ft | 406 kts | 89° |
| 2026-04-15 22:19 | 13.15603 | -87.98216 | 20918 ft | 408 kts | 89° |
| 2026-04-15 22:20 | 13.15580 | -87.95304 | 21184 ft | 410 kts | 90° |
| 2026-04-15 22:20 | 13.15555 | -87.92366 | 21435 ft | 413 kts | 89° |
| 2026-04-15 22:20 | 13.15529 | -87.89409 | 21708 ft | 415 kts | 89° |
| 2026-04-15 22:20 | 13.15505 | -87.86441 | 21960 ft | 418 kts | 89° |
| 2026-04-15 22:21 | 13.15480 | -87.83455 | 22212 ft | 420 kts | 88° |
| 2026-04-15 22:21 | 13.15457 | -87.80450 | 22472 ft | 422 kts | 89° |
| 2026-04-15 22:21 | 13.15435 | -87.77433 | 22705 ft | 425 kts | 88° |
| 2026-04-15 22:21 | 13.15413 | -87.74396 | 22952 ft | 427 kts | 88° |
| 2026-04-15 22:22 | 13.15390 | -87.71343 | 23196 ft | 429 kts | 89° |
| 2026-04-15 22:22 | 13.15365 | -87.68280 | 23417 ft | 431 kts | 89° |
| 2026-04-15 22:22 | 13.15337 | -87.65189 | 23613 ft | 434 kts | 88° |
| 2026-04-15 22:22 | 13.15305 | -87.62090 | 23818 ft | 436 kts | 88° |
| 2026-04-15 22:23 | 13.15284 | -87.60026 | 23954 ft | 437 kts | 89° |
| 2026-04-15 22:23 | 13.15255 | -87.56907 | 24164 ft | 439 kts | 88° |
| 2026-04-15 22:23 | 13.15229 | -87.53768 | 24375 ft | 441 kts | 88° |
| 2026-04-15 22:23 | 13.15204 | -87.50617 | 24587 ft | 442 kts | 88° |
| 2026-04-15 22:24 | 13.15180 | -87.47457 | 24791 ft | 444 kts | 88° |
| 2026-04-15 22:24 | 13.15154 | -87.44278 | 24998 ft | 446 kts | 88° |
| 2026-04-15 22:24 | 13.15127 | -87.41091 | 25202 ft | 448 kts | 88° |
| 2026-04-15 22:24 | 13.15098 | -87.37890 | 25409 ft | 450 kts | 88° |
| 2026-04-15 22:25 | 13.15064 | -87.34675 | 25613 ft | 451 kts | 88° |
| 2026-04-15 22:25 | 13.15027 | -87.31450 | 25815 ft | 453 kts | 88° |
| 2026-04-15 22:25 | 13.14991 | -87.28212 | 25992 ft | 456 kts | 88° |
| 2026-04-15 22:25 | 13.14956 | -87.24953 | 26185 ft | 458 kts | 88° |
| 2026-04-15 22:26 | 13.14923 | -87.21680 | 26379 ft | 459 kts | 88° |
| 2026-04-15 22:26 | 13.14889 | -87.18395 | 26572 ft | 461 kts | 88° |
| 2026-04-15 22:26 | 13.14857 | -87.15096 | 26756 ft | 463 kts | 88° |
| 2026-04-15 22:26 | 13.14826 | -87.11792 | 26958 ft | 465 kts | 88° |
| 2026-04-15 22:27 | 13.14796 | -87.08514 | 27145 ft | 466 kts | 88° |
| 2026-04-15 22:27 | 13.14762 | -87.05182 | 27328 ft | 468 kts | 88° |
| 2026-04-15 22:27 | 13.14725 | -87.01839 | 27516 ft | 470 kts | 88° |
| 2026-04-15 22:27 | 13.14685 | -86.98482 | 27703 ft | 472 kts | 88° |
| 2026-04-15 22:28 | 13.14641 | -86.95110 | 27879 ft | 473 kts | 88° |
| 2026-04-15 22:28 | 13.14594 | -86.91724 | 28059 ft | 476 kts | 88° |
| 2026-04-15 22:28 | 13.14470 | -86.88324 | 28220 ft | 479 kts | 90° |
| 2026-04-15 22:28 | 13.14253 | -86.84909 | 28384 ft | 481 kts | 91° |
| 2026-04-15 22:29 | 13.13980 | -86.81480 | 28556 ft | 483 kts | 92° |
| 2026-04-15 22:29 | 13.13688 | -86.78045 | 28744 ft | 484 kts | 92° |
| 2026-04-15 22:29 | 13.13398 | -86.74596 | 28916 ft | 486 kts | 92° |
| 2026-04-15 22:29 | 13.13126 | -86.71142 | 29090 ft | 487 kts | 91° |
| 2026-04-15 22:30 | 13.12875 | -86.67671 | 29259 ft | 489 kts | 91° |
| 2026-04-15 22:30 | 13.12637 | -86.64191 | 29450 ft | 490 kts | 91° |
| 2026-04-15 22:30 | 13.12405 | -86.60697 | 29625 ft | 492 kts | 91° |
| 2026-04-15 22:30 | 13.12172 | -86.57190 | 29806 ft | 493 kts | 91° |
| 2026-04-15 22:31 | 13.11937 | -86.53725 | 29988 ft | 493 kts | 91° |
| 2026-04-15 22:31 | 13.11691 | -86.50214 | 30162 ft | 493 kts | 91° |
| 2026-04-15 22:31 | 13.11442 | -86.46711 | 30400 ft | 493 kts | 91° |
| 2026-04-15 22:31 | 13.11192 | -86.43214 | 30646 ft | 491 kts | 91° |
| 2026-04-15 22:32 | 13.10941 | -86.39727 | 30922 ft | 489 kts | 90° |
| 2026-04-15 22:32 | 13.10689 | -86.36254 | 31164 ft | 488 kts | 91° |
| 2026-04-15 22:32 | 13.10438 | -86.32786 | 31425 ft | 487 kts | 91° |
| 2026-04-15 22:32 | 13.10191 | -86.29335 | 31699 ft | 485 kts | 90° |
| 2026-04-15 22:33 | 13.09945 | -86.25886 | 31972 ft | 483 kts | 90° |
| 2026-04-15 22:33 | 13.09700 | -86.22455 | 32242 ft | 482 kts | 90° |
| 2026-04-15 22:33 | 13.09455 | -86.19033 | 32539 ft | 480 kts | 90° |
| 2026-04-15 22:33 | 13.09212 | -86.15634 | 32825 ft | 478 kts | 90° |
| 2026-04-15 22:34 | 13.08970 | -86.12235 | 33056 ft | 477 kts | 90° |
| 2026-04-15 22:34 | 13.08724 | -86.08849 | 33310 ft | 476 kts | 90° |
| 2026-04-15 22:34 | 13.08477 | -86.05467 | 33550 ft | 475 kts | 90° |
| 2026-04-15 22:34 | 13.08230 | -86.02101 | 33810 ft | 473 kts | 90° |
| 2026-04-15 22:35 | 13.07985 | -85.98744 | 34054 ft | 471 kts | 90° |
| 2026-04-15 22:35 | 13.07743 | -85.95396 | 34259 ft | 470 kts | 90° |
| 2026-04-15 22:35 | 13.07502 | -85.92046 | 34451 ft | 470 kts | 90° |
| 2026-04-15 22:35 | 13.07261 | -85.88710 | 34627 ft | 470 kts | 90° |
| 2026-04-15 22:36 | 13.07017 | -85.85367 | 34817 ft | 470 kts | 90° |
| 2026-04-15 22:36 | 13.06530 | -85.78743 | 34921 ft | 467 kts | 89° |
| 2026-04-15 22:37 | 13.06244 | -85.72114 | 34914 ft | 464 kts | 86° |
| 2026-04-15 22:37 | 13.06165 | -85.65500 | 34915 ft | 463 kts | 86° |
| 2026-04-15 22:38 | 13.06067 | -85.58898 | 34910 ft | 464 kts | 86° |
| 2026-04-15 22:38 | 13.05906 | -85.52290 | 34901 ft | 464 kts | 87° |
| 2026-04-15 22:39 | 13.05721 | -85.45680 | 34905 ft | 464 kts | 87° |
| 2026-04-15 22:39 | 13.05536 | -85.39060 | 34895 ft | 464 kts | 87° |
| 2026-04-15 22:40 | 13.05360 | -85.32442 | 34886 ft | 465 kts | 86° |
| 2026-04-15 22:40 | 13.05190 | -85.25822 | 34869 ft | 464 kts | 86° |
| 2026-04-15 22:41 | 13.04921 | -85.15884 | 34870 ft | 465 kts | 87° |
| 2026-04-15 22:41 | 13.04733 | -85.09292 | 34861 ft | 465 kts | 87° |
| 2026-04-15 22:42 | 13.04544 | -85.02654 | 34867 ft | 466 kts | 86° |
| 2026-04-15 22:42 | 13.04370 | -84.96017 | 34856 ft | 466 kts | 86° |
| 2026-04-15 22:43 | 13.04185 | -84.89360 | 34857 ft | 467 kts | 86° |
| 2026-04-15 22:43 | 13.03997 | -84.82709 | 34859 ft | 467 kts | 86° |
| 2026-04-15 22:44 | 13.03807 | -84.76048 | 34857 ft | 467 kts | 86° |
| 2026-04-15 22:44 | 13.03614 | -84.69387 | 34859 ft | 467 kts | 86° |
| 2026-04-15 22:45 | 13.03420 | -84.62714 | 34860 ft | 468 kts | 86° |
| 2026-04-15 22:45 | 13.03229 | -84.56092 | 34853 ft | 469 kts | 86° |
| 2026-04-15 22:46 | 13.03030 | -84.49406 | 34861 ft | 469 kts | 86° |
| 2026-04-15 22:46 | 13.02824 | -84.42725 | 34859 ft | 469 kts | 86° |
| 2026-04-15 22:47 | 13.02621 | -84.36034 | 34874 ft | 469 kts | 86° |
| 2026-04-15 22:47 | 13.02426 | -84.29346 | 34872 ft | 469 kts | 86° |
| 2026-04-15 22:48 | 13.02228 | -84.22650 | 34861 ft | 470 kts | 86° |
| 2026-04-15 22:48 | 13.02023 | -84.15943 | 34872 ft | 471 kts | 87° |
| 2026-04-15 22:49 | 13.01812 | -84.09233 | 34873 ft | 471 kts | 87° |
| 2026-04-15 22:49 | 13.01598 | -84.02515 | 34891 ft | 471 kts | 87° |
| 2026-04-15 22:50 | 13.01390 | -83.95794 | 34890 ft | 472 kts | 87° |
| 2026-04-15 22:50 | 13.01174 | -83.89071 | 34902 ft | 472 kts | 87° |
| 2026-04-15 22:51 | 13.00955 | -83.82387 | 34892 ft | 473 kts | 87° |
| 2026-04-15 22:51 | 13.00733 | -83.75647 | 34902 ft | 473 kts | 87° |
| 2026-04-15 22:52 | 13.00513 | -83.68900 | 34899 ft | 474 kts | 87° |
| 2026-04-15 22:52 | 13.00295 | -83.62144 | 34900 ft | 474 kts | 87° |
| 2026-04-15 22:53 | 13.00073 | -83.55389 | 34915 ft | 474 kts | 87° |
| 2026-04-15 22:53 | 12.99845 | -83.48627 | 34914 ft | 475 kts | 87° |
| 2026-04-15 22:54 | 12.99612 | -83.41849 | 34911 ft | 476 kts | 87° |
| 2026-04-15 22:54 | 12.99385 | -83.35060 | 34912 ft | 477 kts | 87° |
| 2026-04-15 22:55 | 12.99149 | -83.28264 | 34915 ft | 477 kts | 87° |
| 2026-04-15 22:55 | 12.98911 | -83.21455 | 34920 ft | 478 kts | 87° |
| 2026-04-15 22:56 | 12.98681 | -83.14691 | 34940 ft | 478 kts | 88° |
| 2026-04-15 22:56 | 12.98442 | -83.07870 | 34925 ft | 479 kts | 88° |
| 2026-04-15 22:57 | 12.98207 | -83.01041 | 34923 ft | 480 kts | 88° |
| 2026-04-15 22:57 | 12.97967 | -82.94190 | 34928 ft | 481 kts | 88° |
| 2026-04-15 22:58 | 12.97715 | -82.87328 | 34932 ft | 482 kts | 88° |
| 2026-04-15 22:58 | 12.97462 | -82.80467 | 34936 ft | 482 kts | 88° |
| 2026-04-15 22:59 | 12.97212 | -82.73603 | 34938 ft | 483 kts | 88° |
| 2026-04-15 22:59 | 12.96964 | -82.66715 | 34930 ft | 484 kts | 88° |
| 2026-04-15 23:00 | 12.96713 | -82.59817 | 34931 ft | 485 kts | 88° |
| 2026-04-15 23:00 | 12.96456 | -82.52957 | 34934 ft | 485 kts | 88° |
| 2026-04-15 23:01 | 12.96197 | -82.46043 | 34939 ft | 486 kts | 88° |
| 2026-04-15 23:01 | 12.95941 | -82.39127 | 34950 ft | 486 kts | 89° |
| 2026-04-15 23:02 | 12.95677 | -82.32196 | 34939 ft | 487 kts | 89° |
| 2026-04-15 23:02 | 12.95406 | -82.25250 | 34936 ft | 488 kts | 89° |
| 2026-04-15 23:03 | 12.95137 | -82.18295 | 34936 ft | 488 kts | 89° |
| 2026-04-15 23:03 | 12.94873 | -82.11335 | 34940 ft | 489 kts | 89° |
| 2026-04-15 23:04 | 12.94607 | -82.04371 | 34942 ft | 489 kts | 89° |
| 2026-04-15 23:04 | 12.94336 | -81.97454 | 34945 ft | 489 kts | 89° |
| 2026-04-15 23:05 | 12.94058 | -81.90493 | 34943 ft | 489 kts | 89° |
| 2026-04-15 23:05 | 12.93773 | -81.83519 | 34945 ft | 489 kts | 89° |
| 2026-04-15 23:06 | 12.93497 | -81.76554 | 34950 ft | 489 kts | 89° |
| 2026-04-15 23:06 | 12.93223 | -81.69591 | 34951 ft | 489 kts | 89° |
| 2026-04-15 23:07 | 12.92944 | -81.62625 | 34947 ft | 489 kts | 89° |
| 2026-04-15 23:07 | 12.92661 | -81.55656 | 34932 ft | 490 kts | 90° |
| 2026-04-15 23:08 | 12.92367 | -81.48671 | 34932 ft | 491 kts | 90° |
| 2026-04-15 23:08 | 12.92077 | -81.41687 | 34933 ft | 491 kts | 89° |
| 2026-04-15 23:09 | 12.91789 | -81.34734 | 34932 ft | 491 kts | 90° |
| 2026-04-15 23:09 | 12.91496 | -81.27741 | 34936 ft | 491 kts | 90° |
| 2026-04-15 23:10 | 12.91200 | -81.20734 | 34926 ft | 492 kts | 90° |
| 2026-04-15 23:10 | 12.90901 | -81.13723 | 34925 ft | 493 kts | 90° |
| 2026-04-15 23:11 | 12.90604 | -81.06697 | 34927 ft | 493 kts | 90° |
| 2026-04-15 23:11 | 12.90306 | -80.99671 | 34934 ft | 494 kts | 90° |
| 2026-04-15 23:12 | 12.89998 | -80.92640 | 34936 ft | 494 kts | 90° |
| 2026-04-15 23:12 | 12.89689 | -80.85614 | 34933 ft | 494 kts | 90° |
| 2026-04-15 23:13 | 12.89381 | -80.78579 | 34935 ft | 494 kts | 90° |
| 2026-04-15 23:13 | 12.89072 | -80.71535 | 34934 ft | 495 kts | 90° |
| 2026-04-15 23:14 | 12.88771 | -80.64542 | 34934 ft | 494 kts | 90° |
| 2026-04-15 23:14 | 12.88459 | -80.57498 | 34934 ft | 495 kts | 91° |
| 2026-04-15 23:15 | 12.88135 | -80.50467 | 34935 ft | 494 kts | 91° |
| 2026-04-15 23:15 | 12.87815 | -80.43422 | 34930 ft | 495 kts | 91° |
| 2026-04-15 23:16 | 12.87494 | -80.36382 | 34927 ft | 495 kts | 91° |
| 2026-04-15 23:16 | 12.87180 | -80.29333 | 34926 ft | 495 kts | 91° |
| 2026-04-15 23:17 | 12.86855 | -80.22282 | 34933 ft | 495 kts | 91° |
| 2026-04-15 23:17 | 12.86529 | -80.15227 | 34939 ft | 496 kts | 91° |
| 2026-04-15 23:18 | 12.86197 | -80.08165 | 34939 ft | 496 kts | 91° |
| 2026-04-15 23:18 | 12.85871 | -80.01156 | 34939 ft | 496 kts | 91° |
| 2026-04-15 23:19 | 12.85545 | -79.94099 | 34936 ft | 496 kts | 91° |
| 2026-04-15 23:19 | 12.85208 | -79.87041 | 34937 ft | 496 kts | 91° |
| 2026-04-15 23:20 | 12.84868 | -79.79980 | 34934 ft | 496 kts | 91° |
| 2026-04-15 23:20 | 12.84534 | -79.72919 | 34931 ft | 496 kts | 92° |
| 2026-04-15 23:21 | 12.84194 | -79.65852 | 34931 ft | 497 kts | 92° |
| 2026-04-15 23:21 | 12.83846 | -79.58783 | 34932 ft | 497 kts | 92° |
| 2026-04-15 23:22 | 12.83500 | -79.51714 | 34934 ft | 497 kts | 92° |
| 2026-04-15 23:22 | 12.83158 | -79.44650 | 34935 ft | 497 kts | 92° |
| 2026-04-15 23:23 | 12.82874 | -79.38773 | 34929 ft | 497 kts | 92° |
| 2026-04-15 23:23 | 12.82524 | -79.31699 | 34925 ft | 497 kts | 92° |
| 2026-04-15 23:24 | 12.82171 | -79.24622 | 34929 ft | 498 kts | 92° |
| 2026-04-15 23:24 | 12.81825 | -79.17536 | 34930 ft | 498 kts | 92° |
| 2026-04-15 23:25 | 12.81469 | -79.10445 | 34930 ft | 498 kts | 92° |
| 2026-04-15 23:25 | 12.81108 | -79.03358 | 34936 ft | 498 kts | 93° |
| 2026-04-15 23:26 | 12.80750 | -78.96265 | 34928 ft | 499 kts | 93° |
| 2026-04-15 23:26 | 12.80395 | -78.89171 | 34928 ft | 499 kts | 93° |
| 2026-04-15 23:27 | 12.80035 | -78.82073 | 34929 ft | 499 kts | 93° |
| 2026-04-15 23:27 | 12.79663 | -78.75015 | 34930 ft | 499 kts | 93° |
| 2026-04-15 23:28 | 12.79290 | -78.67914 | 34935 ft | 499 kts | 93° |
| 2026-04-15 23:28 | 12.78929 | -78.60808 | 34930 ft | 500 kts | 93° |
| 2026-04-15 23:29 | 12.78564 | -78.53705 | 34930 ft | 500 kts | 93° |
| 2026-04-15 23:29 | 12.78186 | -78.46593 | 34931 ft | 500 kts | 93° |
| 2026-04-15 23:30 | 12.77806 | -78.39476 | 34931 ft | 500 kts | 93° |
| 2026-04-15 23:30 | 12.77421 | -78.32365 | 34932 ft | 500 kts | 93° |
| 2026-04-15 23:31 | 12.77040 | -78.25251 | 34933 ft | 500 kts | 93° |
| 2026-04-15 23:31 | 12.76661 | -78.18135 | 34933 ft | 500 kts | 93° |
| 2026-04-15 23:32 | 12.76278 | -78.11068 | 34935 ft | 500 kts | 93° |
| 2026-04-15 23:32 | 12.75894 | -78.03950 | 34933 ft | 500 kts | 93° |
| 2026-04-15 23:33 | 12.75509 | -77.96835 | 34936 ft | 500 kts | 93° |
| 2026-04-15 23:33 | 12.75125 | -77.89722 | 34931 ft | 501 kts | 93° |
| 2026-04-15 23:34 | 12.74734 | -77.82597 | 34930 ft | 501 kts | 94° |
| 2026-04-15 23:36 | 12.73344 | -77.57667 | 34936 ft | 501 kts | 94° |
| 2026-04-15 23:36 | 12.72943 | -77.50592 | 34930 ft | 501 kts | 94° |
| 2026-04-15 23:37 | 12.72537 | -77.43462 | 34928 ft | 502 kts | 94° |
| 2026-04-15 23:37 | 12.72131 | -77.36328 | 34931 ft | 502 kts | 94° |
| 2026-04-15 23:38 | 12.71727 | -77.29195 | 34927 ft | 502 kts | 94° |
| 2026-04-15 23:38 | 12.71324 | -77.22056 | 34925 ft | 502 kts | 94° |
| 2026-04-15 23:39 | 12.70917 | -77.14919 | 34925 ft | 502 kts | 94° |
| 2026-04-15 23:39 | 12.70496 | -77.07782 | 34927 ft | 502 kts | 94° |
| 2026-04-15 23:40 | 12.70081 | -77.00640 | 34928 ft | 502 kts | 94° |
| 2026-04-15 23:40 | 12.69672 | -76.93541 | 34927 ft | 502 kts | 94° |
| 2026-04-15 23:41 | 12.69255 | -76.86402 | 34928 ft | 502 kts | 94° |
| 2026-04-15 23:41 | 12.68826 | -76.79258 | 34926 ft | 503 kts | 94° |
| 2026-04-15 23:42 | 12.68399 | -76.72110 | 34926 ft | 503 kts | 94° |
| 2026-04-15 23:42 | 12.67998 | -76.64964 | 34927 ft | 503 kts | 94° |
| 2026-04-15 23:43 | 12.67597 | -76.57807 | 34929 ft | 503 kts | 94° |
| 2026-04-15 23:43 | 12.67191 | -76.50654 | 34929 ft | 503 kts | 94° |
| 2026-04-15 23:44 | 12.66786 | -76.43496 | 34928 ft | 503 kts | 94° |
| 2026-04-15 23:44 | 12.66373 | -76.36343 | 34929 ft | 503 kts | 94° |
| 2026-04-15 23:45 | 12.65956 | -76.29185 | 34929 ft | 504 kts | 94° |
| 2026-04-15 23:45 | 12.65537 | -76.22029 | 34930 ft | 504 kts | 94° |
| 2026-04-15 23:46 | 12.65112 | -76.14871 | 34927 ft | 504 kts | 95° |
| 2026-04-15 23:46 | 12.64693 | -76.07765 | 34927 ft | 503 kts | 95° |
| 2026-04-15 23:47 | 12.64266 | -76.00609 | 34928 ft | 503 kts | 95° |
| 2026-04-15 23:47 | 12.63840 | -75.93452 | 34928 ft | 503 kts | 95° |
| 2026-04-15 23:48 | 12.63418 | -75.86298 | 34931 ft | 503 kts | 95° |
| 2026-04-15 23:48 | 12.62997 | -75.79140 | 34932 ft | 503 kts | 95° |
| 2026-04-15 23:49 | 12.62568 | -75.71986 | 34932 ft | 503 kts | 95° |
| 2026-04-15 23:49 | 12.62126 | -75.64839 | 34930 ft | 503 kts | 95° |
| 2026-04-15 23:50 | 12.61696 | -75.57698 | 34929 ft | 503 kts | 95° |
| 2026-04-15 23:50 | 12.61265 | -75.50550 | 34926 ft | 503 kts | 95° |
| 2026-04-15 23:51 | 12.60613 | -75.39828 | 34930 ft | 503 kts | 95° |
| 2026-04-15 23:51 | 12.60174 | -75.32731 | 34937 ft | 503 kts | 95° |
| 2026-04-15 23:52 | 12.59731 | -75.25593 | 34930 ft | 503 kts | 95° |
| 2026-04-15 23:52 | 12.59284 | -75.18454 | 34930 ft | 502 kts | 95° |
| 2026-04-15 23:53 | 12.58835 | -75.11320 | 34932 ft | 502 kts | 95° |
| 2026-04-15 23:53 | 12.58385 | -75.04189 | 34924 ft | 502 kts | 95° |
| 2026-04-15 23:54 | 12.57940 | -74.97055 | 34929 ft | 502 kts | 95° |
| 2026-04-15 23:54 | 12.57653 | -74.89913 | 34931 ft | 502 kts | 92° |
| 2026-04-15 23:55 | 12.57630 | -74.82769 | 34929 ft | 502 kts | 91° |
| 2026-04-15 23:55 | 12.57627 | -74.75618 | 34929 ft | 502 kts | 91° |
| 2026-04-15 23:56 | 12.57546 | -74.68471 | 34926 ft | 502 kts | 92° |
| 2026-04-15 23:56 | 12.57419 | -74.61330 | 34927 ft | 502 kts | 92° |
| 2026-04-15 23:57 | 12.57298 | -74.54182 | 34929 ft | 502 kts | 92° |
| 2026-04-15 23:57 | 12.57190 | -74.47089 | 34927 ft | 502 kts | 92° |
| 2026-04-15 23:58 | 12.57092 | -74.39947 | 34927 ft | 502 kts | 92° |
| 2026-04-15 23:58 | 12.56988 | -74.32806 | 34929 ft | 502 kts | 92° |
| 2026-04-15 23:59 | 12.56868 | -74.25668 | 34930 ft | 501 kts | 92° |
| 2026-04-15 23:59 | 12.56747 | -74.18537 | 34931 ft | 501 kts | 92° |
| 2026-04-16 00:00 | 12.56624 | -74.11402 | 34929 ft | 501 kts | 92° |
| 2026-04-16 00:00 | 12.56515 | -74.04275 | 34928 ft | 501 kts | 92° |
| 2026-04-16 00:01 | 12.56402 | -73.97139 | 34925 ft | 501 kts | 92° |
| 2026-04-16 00:01 | 12.56286 | -73.90018 | 34926 ft | 501 kts | 92° |
| 2026-04-16 00:02 | 12.56164 | -73.82887 | 34928 ft | 501 kts | 92° |
| 2026-04-16 00:02 | 12.56036 | -73.75768 | 34930 ft | 500 kts | 92° |
| 2026-04-16 00:03 | 12.55911 | -73.68651 | 34932 ft | 500 kts | 92° |
| 2026-04-16 00:03 | 12.55787 | -73.61524 | 34929 ft | 500 kts | 92° |
| 2026-04-16 00:04 | 12.55657 | -73.54414 | 34928 ft | 500 kts | 92° |
| 2026-04-16 00:04 | 12.55522 | -73.47340 | 34926 ft | 500 kts | 93° |
| 2026-04-16 00:05 | 12.55382 | -73.40230 | 34928 ft | 500 kts | 92° |
| 2026-04-16 00:05 | 12.55251 | -73.33112 | 34928 ft | 500 kts | 92° |
| 2026-04-16 00:06 | 12.55116 | -73.26002 | 34928 ft | 500 kts | 93° |
| 2026-04-16 00:06 | 12.54975 | -73.18881 | 34927 ft | 500 kts | 93° |
| 2026-04-16 00:07 | 12.54835 | -73.11771 | 34924 ft | 500 kts | 93° |
| 2026-04-16 00:07 | 12.54690 | -73.04652 | 34926 ft | 500 kts | 93° |
| 2026-04-16 00:08 | 12.54543 | -72.97546 | 34927 ft | 500 kts | 93° |
| 2026-04-16 00:08 | 12.54397 | -72.90427 | 34924 ft | 500 kts | 93° |
| 2026-04-16 00:09 | 12.54252 | -72.83316 | 34925 ft | 500 kts | 93° |
| 2026-04-16 00:09 | 12.54104 | -72.76205 | 34922 ft | 500 kts | 93° |
| 2026-04-16 00:10 | 12.53951 | -72.69089 | 34921 ft | 500 kts | 93° |
| 2026-04-16 00:10 | 12.53802 | -72.62030 | 34921 ft | 500 kts | 93° |
| 2026-04-16 00:11 | 12.53645 | -72.54915 | 34923 ft | 500 kts | 94° |
| 2026-04-16 00:11 | 12.53479 | -72.47809 | 34923 ft | 500 kts | 94° |
| 2026-04-16 00:12 | 12.53316 | -72.40693 | 34920 ft | 500 kts | 94° |
| 2026-04-16 00:12 | 12.53164 | -72.33587 | 34920 ft | 500 kts | 93° |
| 2026-04-16 00:13 | 12.53003 | -72.26475 | 34933 ft | 500 kts | 94° |
| 2026-04-16 00:13 | 12.52830 | -72.19364 | 34922 ft | 500 kts | 94° |
| 2026-04-16 00:14 | 12.52657 | -72.12239 | 34913 ft | 501 kts | 94° |
| 2026-04-16 00:14 | 12.52488 | -72.05108 | 34911 ft | 501 kts | 94° |
| 2026-04-16 00:15 | 12.52319 | -71.98020 | 34911 ft | 502 kts | 94° |
| 2026-04-16 00:15 | 12.52141 | -71.90881 | 34929 ft | 502 kts | 94° |
| 2026-04-16 00:16 | 12.51962 | -71.83741 | 34915 ft | 502 kts | 94° |
| 2026-04-16 00:16 | 12.51790 | -71.76604 | 34916 ft | 502 kts | 94° |
| 2026-04-16 00:17 | 12.51609 | -71.69465 | 34620 ft | 501 kts | 94° |
| 2026-04-16 00:17 | 12.51517 | -71.65899 | 34386 ft | 501 kts | 94° |
| 2026-04-16 00:17 | 12.51424 | -71.62341 | 34162 ft | 501 kts | 94° |
| 2026-04-16 00:18 | 12.51332 | -71.58764 | 33944 ft | 502 kts | 94° |
| 2026-04-16 00:18 | 12.51240 | -71.55200 | 33690 ft | 502 kts | 94° |
| 2026-04-16 00:18 | 12.51150 | -71.51635 | 33433 ft | 502 kts | 94° |
| 2026-04-16 00:18 | 12.51058 | -71.48067 | 33180 ft | 502 kts | 94° |
| 2026-04-16 00:19 | 12.50966 | -71.44548 | 32930 ft | 500 kts | 93° |
| 2026-04-16 00:19 | 12.50872 | -71.40949 | 32677 ft | 498 kts | 93° |
| 2026-04-16 00:19 | 12.50780 | -71.37462 | 32433 ft | 496 kts | 93° |
| 2026-04-16 00:19 | 12.50688 | -71.33938 | 32187 ft | 494 kts | 93° |
| 2026-04-16 00:20 | 12.50599 | -71.30422 | 31953 ft | 492 kts | 93° |
| 2026-04-16 00:20 | 12.50508 | -71.26930 | 31708 ft | 490 kts | 93° |
| 2026-04-16 00:20 | 12.50415 | -71.23457 | 31470 ft | 488 kts | 93° |
| 2026-04-16 00:20 | 12.50321 | -71.19992 | 31233 ft | 486 kts | 93° |
| 2026-04-16 00:21 | 12.50226 | -71.16533 | 30997 ft | 484 kts | 93° |
| 2026-04-16 00:21 | 12.50130 | -71.13104 | 30767 ft | 482 kts | 93° |
| 2026-04-16 00:21 | 12.50033 | -71.09673 | 30536 ft | 480 kts | 93° |
| 2026-04-16 00:21 | 12.49936 | -71.06264 | 30308 ft | 479 kts | 93° |
| 2026-04-16 00:22 | 12.49840 | -71.02867 | 30081 ft | 477 kts | 93° |
| 2026-04-16 00:22 | 12.49704 | -71.00632 | 29921 ft | 474 kts | 98° |
| 2026-04-16 00:22 | 12.49319 | -70.97295 | 29651 ft | 472 kts | 98° |
| 2026-04-16 00:22 | 12.48931 | -70.93965 | 29383 ft | 470 kts | 98° |
| 2026-04-16 00:23 | 12.48543 | -70.90654 | 29124 ft | 467 kts | 98° |
| 2026-04-16 00:23 | 12.48154 | -70.87364 | 28854 ft | 465 kts | 98° |
| 2026-04-16 00:23 | 12.47639 | -70.83031 | 28521 ft | 461 kts | 98° |
| 2026-04-16 00:23 | 12.47379 | -70.80835 | 28342 ft | 460 kts | 98° |
| 2026-04-16 00:24 | 12.46994 | -70.77596 | 28087 ft | 457 kts | 98° |
| 2026-04-16 00:24 | 12.46613 | -70.74374 | 27831 ft | 455 kts | 98° |
| 2026-04-16 00:24 | 12.46237 | -70.71165 | 27574 ft | 453 kts | 98° |
| 2026-04-16 00:24 | 12.45864 | -70.67975 | 27334 ft | 450 kts | 98° |
| 2026-04-16 00:25 | 12.45498 | -70.64863 | 26952 ft | 444 kts | 97° |
| 2026-04-16 00:25 | 12.45128 | -70.61734 | 26474 ft | 441 kts | 97° |
| 2026-04-16 00:25 | 12.44758 | -70.58635 | 25998 ft | 438 kts | 97° |
| 2026-04-16 00:25 | 12.44389 | -70.55556 | 25548 ft | 434 kts | 97° |
| 2026-04-16 00:26 | 12.44021 | -70.52500 | 25098 ft | 431 kts | 97° |
| 2026-04-16 00:26 | 12.43655 | -70.49468 | 24656 ft | 428 kts | 97° |
| 2026-04-16 00:26 | 12.43297 | -70.46464 | 24217 ft | 424 kts | 97° |
| 2026-04-16 00:26 | 12.42944 | -70.43475 | 23773 ft | 421 kts | 97° |
| 2026-04-16 00:27 | 12.42591 | -70.40511 | 23303 ft | 418 kts | 96° |
| 2026-04-16 00:27 | 12.42241 | -70.37574 | 22838 ft | 414 kts | 97° |
| 2026-04-16 00:27 | 12.41893 | -70.34663 | 22399 ft | 409 kts | 97° |
| 2026-04-16 00:27 | 12.41551 | -70.31791 | 21953 ft | 405 kts | 97° |
| 2026-04-16 00:28 | 12.41211 | -70.28946 | 21513 ft | 401 kts | 97° |
| 2026-04-16 00:28 | 12.40959 | -70.26116 | 21077 ft | 398 kts | 91° |
| 2026-04-16 00:28 | 12.40903 | -70.23300 | 20630 ft | 395 kts | 91° |
| 2026-04-16 00:28 | 12.40844 | -70.20500 | 20187 ft | 392 kts | 91° |
| 2026-04-16 00:29 | 12.40785 | -70.17719 | 19745 ft | 390 kts | 91° |
| 2026-04-16 00:29 | 12.40725 | -70.14946 | 19294 ft | 389 kts | 91° |
| 2026-04-16 00:29 | 12.40663 | -70.12190 | 18864 ft | 387 kts | 91° |
| 2026-04-16 00:29 | 12.40604 | -70.09476 | 18431 ft | 386 kts | 91° |
| 2026-04-16 00:30 | 12.40545 | -70.06745 | 17961 ft | 384 kts | 92° |
| 2026-04-16 00:30 | 12.40486 | -70.04018 | 17515 ft | 381 kts | 92° |
| 2026-04-16 00:30 | 12.40428 | -70.01316 | 17085 ft | 378 kts | 92° |
| 2026-04-16 00:30 | 12.40370 | -69.98638 | 16658 ft | 375 kts | 92° |
| 2026-04-16 00:31 | 12.40312 | -69.95980 | 16237 ft | 372 kts | 92° |
| 2026-04-16 00:31 | 12.40255 | -69.93345 | 15813 ft | 370 kts | 92° |
| 2026-04-16 00:31 | 12.40195 | -69.90718 | 15394 ft | 368 kts | 92° |
| 2026-04-16 00:31 | 12.40135 | -69.88106 | 14973 ft | 366 kts | 92° |
| 2026-04-16 00:32 | 12.40074 | -69.85504 | 14544 ft | 365 kts | 92° |
| 2026-04-16 00:32 | 12.40013 | -69.82918 | 14126 ft | 364 kts | 92° |
| 2026-04-16 00:32 | 12.39952 | -69.80335 | 13692 ft | 363 kts | 92° |
| 2026-04-16 00:32 | 12.39894 | -69.77755 | 13225 ft | 362 kts | 92° |
| 2026-04-16 00:33 | 12.39838 | -69.75199 | 12780 ft | 355 kts | 92° |
| 2026-04-16 00:33 | 12.39784 | -69.72722 | 12362 ft | 344 kts | 93° |
| 2026-04-16 00:33 | 12.39730 | -69.70310 | 11947 ft | 333 kts | 92° |
| 2026-04-16 00:33 | 12.39676 | -69.67975 | 11538 ft | 324 kts | 93° |
| 2026-04-16 00:34 | 12.39623 | -69.65705 | 11141 ft | 315 kts | 93° |
| 2026-04-16 00:34 | 12.39571 | -69.63499 | 10743 ft | 307 kts | 93° |
| 2026-04-16 00:34 | 12.39499 | -69.61334 | 10363 ft | 304 kts | 97° |
| 2026-04-16 00:34 | 12.39078 | -69.59241 | 10116 ft | 296 kts | 110° |
| 2026-04-16 00:35 | 12.38369 | -69.57296 | 10019 ft | 295 kts | 112° |
| 2026-04-16 00:35 | 12.37648 | -69.55332 | 9893 ft | 295 kts | 112° |
| 2026-04-16 00:35 | 12.36931 | -69.53358 | 9474 ft | 296 kts | 111° |
| 2026-04-16 00:35 | 12.36225 | -69.51405 | 9000 ft | 289 kts | 111° |
| 2026-04-16 00:36 | 12.35527 | -69.49477 | 8597 ft | 289 kts | 111° |
| 2026-04-16 00:36 | 12.34828 | -69.47556 | 8196 ft | 288 kts | 111° |
| 2026-04-16 00:36 | 12.34133 | -69.45656 | 7847 ft | 284 kts | 111° |
| 2026-04-16 00:36 | 12.33432 | -69.43752 | 7440 ft | 284 kts | 111° |
| 2026-04-16 00:37 | 12.32738 | -69.41862 | 7007 ft | 286 kts | 111° |
| 2026-04-16 00:37 | 12.32050 | -69.39985 | 6613 ft | 279 kts | 111° |
| 2026-04-16 00:37 | 12.31378 | -69.38148 | 6142 ft | 274 kts | 110° |
| 2026-04-16 00:37 | 12.30713 | -69.36335 | 5702 ft | 271 kts | 110° |
| 2026-04-16 00:38 | 12.30054 | -69.34540 | 5325 ft | 267 kts | 110° |
| 2026-04-16 00:38 | 12.29407 | -69.32768 | 4926 ft | 264 kts | 109° |
| 2026-04-16 00:38 | 12.28764 | -69.31015 | 4532 ft | 264 kts | 109° |
| 2026-04-16 00:38 | 12.28122 | -69.29266 | 4146 ft | 262 kts | 110° |
| 2026-04-16 00:39 | 12.27484 | -69.27526 | 3767 ft | 261 kts | 109° |
| 2026-04-16 00:39 | 12.26849 | -69.25792 | 3394 ft | 260 kts | 109° |
| 2026-04-16 00:39 | 12.26225 | -69.24089 | 3013 ft | 253 kts | 109° |
| 2026-04-16 00:39 | 12.25620 | -69.22443 | 2842 ft | 238 kts | 109° |
| 2026-04-16 00:40 | 12.25057 | -69.20913 | 2799 ft | 224 kts | 109° |
| 2026-04-16 00:40 | 12.24510 | -69.19428 | 2753 ft | 223 kts | 108° |
| 2026-04-16 00:40 | 12.23977 | -69.17980 | 2709 ft | 212 kts | 109° |
| 2026-04-16 00:40 | 12.23457 | -69.16593 | 2636 ft | 205 kts | 109° |
| 2026-04-16 00:41 | 12.23025 | -69.15308 | 2552 ft | 181 kts | 103° |
| 2026-04-16 00:41 | 12.22734 | -69.14134 | 2519 ft | 162 kts | 101° |
| 2026-04-16 00:41 | 12.22490 | -69.13032 | 2522 ft | 157 kts | 101° |
| 2026-04-16 00:41 | 12.22257 | -69.11944 | 2529 ft | 156 kts | 101° |
| 2026-04-16 00:42 | 12.22029 | -69.10867 | 2526 ft | 155 kts | 100° |
| 2026-04-16 00:42 | 12.21801 | -69.09787 | 2439 ft | 155 kts | 100° |
| 2026-04-16 00:42 | 12.21575 | -69.08716 | 2284 ft | 154 kts | 100° |
| 2026-04-16 00:42 | 12.21351 | -69.07649 | 2109 ft | 154 kts | 101° |
| 2026-04-16 00:43 | 12.21126 | -69.06583 | 1918 ft | 153 kts | 99° |
| 2026-04-16 00:43 | 12.20904 | -69.05526 | 1728 ft | 150 kts | 100° |
| 2026-04-16 00:43 | 12.20686 | -69.04492 | 1523 ft | 148 kts | 99° |
| 2026-04-16 00:43 | 12.20470 | -69.03466 | 1331 ft | 147 kts | 101° |
| 2026-04-16 00:44 | 12.20255 | -69.02444 | 1147 ft | 147 kts | 101° |
| 2026-04-16 00:44 | 12.20040 | -69.01421 | 949 ft | 147 kts | 101° |
| 2026-04-16 00:44 | 12.19827 | -69.00400 | 772 ft | 146 kts | 101° |
| 2026-04-16 00:44 | 12.19605 | -68.99386 | 618 ft | 148 kts | 100° |
| 2026-04-16 00:45 | 12.19394 | -68.98381 | 363 ft | 147 kts | 103° |
| 2026-04-16 00:45 | 12.19194 | -68.97364 | 214 ft | 145 kts | 100° |
| 2026-04-16 00:45 | 12.18968 | -68.96362 | 88 ft | 143 kts | 102° |
| 2026-04-16 00:45 | 12.18766 | -68.95444 | 44 ft | 121 kts | 99° |
| 2026-04-16 00:46 | 12.18626 | -68.94713 | 46 ft | 82 kts | 102° |
| 2026-04-16 00:46 | 12.18565 | -68.94459 | 45 ft | 4 kts | 146° |
| 2026-04-16 00:46 | 12.18535 | -68.94461 | 43 ft | 3 kts | 191° |
| 2026-04-16 00:46 | 12.18534 | -68.94461 | 43 ft | 0 kts | 191° |
| 2026-04-16 00:47 | 12.18533 | -68.94461 | 43 ft | 1 kts | 191° |
| 2026-04-16 00:47 | 12.18515 | -68.94465 | 46 ft | 11 kts | 191° |
| 2026-04-16 00:47 | 12.18411 | -68.94516 | 45 ft | 15 kts | 246° |
| 2026-04-16 00:47 | 12.18422 | -68.94586 | 45 ft | 9 kts | 280° |
| 2026-04-16 00:48 | 12.18431 | -68.94643 | 45 ft | 8 kts | 280° |
| 2026-04-16 00:48 | 12.18441 | -68.94693 | 45 ft | 7 kts | 283° |
| 2026-04-16 00:48 | 12.18463 | -68.94789 | 45 ft | 19 kts | 283° |
| 2026-04-16 00:48 | 12.18492 | -68.94923 | 44 ft | 19 kts | 282° |
| 2026-04-16 00:49 | 12.18519 | -68.95050 | 44 ft | 18 kts | 282° |
| 2026-04-16 00:50 | 12.18629 | -68.95717 | 42 ft | 6 kts | 199° |
| 2026-04-16 00:51 | 12.18591 | -68.95724 | 43 ft | 5 kts | 191° |
| 2026-04-16 00:51 | 12.18566 | -68.95729 | 43 ft | 3 kts | 192° |
| 2026-04-16 00:51 | 12.18560 | -68.95730 | 43 ft | 0 kts | 192° |